Time;durP1;ratioP1;P1;durP2;ratioP2;P2;SDS_P1;SDS_P2;PMS_P1;PMS_P2;Temp;Humidity;BMP_temperature;BMP_pressure;BME280_temperature;BME280_humidity;BME280_pressure;Samples;Min_cycle;Max_cycle;Signal;HPM_P1;HPM_P2
2022/04/06 00:30:36;;;;;;;1.47;1.37;;;;;;;19.91;43.61;96755.63;3448897;23;20239;-93
2022/04/06 00:33:09;;;;;;;1.40;1.30;;;;;;;13.27;43.58;95721.31;5041362;23;20298;-85
2022/04/06 00:35:36;;;;;;;1.60;1.50;;;;;;;14.29;43.57;95786.78;4887047;29;20237;-86
2022/04/06 00:38:04;;;;;;;1.50;1.40;;;;;;;15.49;43.53;96038.25;4915149;29;20569;-86
2022/04/06 00:40:33;;;;;;;1.50;1.40;;;;;;;18.39;43.66;96498.84;4874084;29;20235;-85
2022/04/06 00:43:00;;;;;;;1.20;1.20;;;;;;;18.34;43.77;96482.56;4869055;29;20244;-85
2022/04/06 00:45:27;;;;;;;1.67;1.57;;;;;;;16.07;43.77;96094.78;4886730;29;20269;-85
2022/04/06 00:47:56;;;;;;;1.33;1.23;;;;;;;17.44;43.58;96331.13;4882626;29;20258;-87
2022/04/06 00:50:25;;;;;;;1.57;1.47;;;;;;;16.39;43.43;96243.56;4879045;29;20230;-85
2022/04/06 00:52:56;;;;;;;1.67;1.57;;;;;;;16.19;43.70;96172.81;4865472;29;20226;-87
2022/04/06 00:55:24;;;;;;;1.43;1.33;;;;;;;13.16;43.61;95588.97;4862963;29;20207;-86
2022/04/06 00:57:54;;;;;;;1.50;1.40;;;;;;;14.80;43.68;95865.81;4880714;29;20210;-85
2022/04/06 01:00:23;;;;;;;1.57;1.47;;;;;;;12.30;43.93;95466.91;4879765;29;20608;-88
2022/04/06 01:02:50;;;;;;;1.40;1.30;;;;;;;17.25;43.80;96281.50;4866050;29;20229;-87
2022/04/06 01:05:17;;;;;;;1.60;1.50;;;;;;;19.29;43.60;96633.50;4911288;29;20293;-86
2022/04/06 01:07:51;;;;;;;1.57;1.47;;;;;;;19.90;43.80;96731.81;4910312;29;20217;-86
2022/04/06 01:10:18;;;;;;;1.47;1.37;;;;;;;19.91;43.74;96732.69;4898871;29;20224;-86
2022/04/06 01:12:49;;;;;;;1.40;1.30;;;;;;;19.91;43.64;96732.69;4912336;29;20225;-85
2022/04/06 01:15:16;;;;;;;1.40;1.30;;;;;;;15.49;43.77;96037.38;4869270;29;20673;-86
2022/04/06 01:17:45;;;;;;;1.40;1.30;;;;;;;17.34;43.87;96324.03;4877305;29;20676;-86
2022/04/06 01:20:12;;;;;;;1.43;1.33;;;;;;;19.77;43.72;96699.22;4865331;29;20321;-86
2022/04/06 01:22:39;;;;;;;1.50;1.40;;;;;;;19.91;43.86;96730.13;4864399;29;20310;-86
2022/04/06 01:25:08;;;;;;;1.50;1.40;;;;;;;19.91;43.75;96728.44;4883635;29;20213;-88
2022/04/06 01:27:34;;;;;;;1.50;1.40;;;;;;;18.34;43.76;96457.13;4911269;29;20271;-86
2022/04/06 01:30:01;;;;;;;1.53;1.43;;;;;;;14.25;43.75;95815.31;4878448;29;20951;-84
2022/04/06 01:32:32;;;;;;;1.20;1.20;;;;;;;15.34;43.86;95968.56;4867780;29;20261;-86
2022/04/06 01:35:01;;;;;;;1.10;1.10;;;;;;;18.09;43.46;96450.59;4884230;29;20264;-86
2022/04/06 01:37:28;;;;;;;1.30;1.20;;;;;;;19.37;43.65;96639.63;4872416;29;20249;-86
2022/04/06 01:39:57;;;;;;;1.40;1.30;;;;;;;19.31;43.75;96624.22;4895007;29;20652;-87
2022/04/06 01:42:23;;;;;;;1.70;1.60;;;;;;;13.68;43.61;95725.97;4894816;29;20226;-86
2022/04/06 01:44:50;;;;;;;1.40;1.30;;;;;;;19.91;43.48;96725.03;4895969;29;20210;-86
2022/04/06 01:47:20;;;;;;;1.83;1.30;;;;;;;14.86;43.77;95950.28;4880097;29;20232;-86
2022/04/06 01:52:33;;;;;;;1.37;1.27;;;;;;;17.08;43.94;96243.81;4876553;29;20310;-85
2022/04/06 01:55:10;;;;;;;1.50;1.40;;;;;;;10.71;43.66;95296.31;4880886;29;20218;-85
2022/04/06 01:57:37;;;;;;;1.57;1.47;;;;;;;17.17;43.62;96256.75;4880825;29;20255;-86
2022/04/06 02:00:06;;;;;;;1.50;1.40;;;;;;;19.76;43.75;96700.06;4904007;29;20209;-87
2022/04/06 02:02:33;;;;;;;1.50;1.40;;;;;;;13.85;43.90;95708.81;4897351;29;20230;-86
2022/04/06 02:05:00;;;;;;;1.47;1.37;;;;;;;17.22;43.76;96328.78;4869743;29;20296;-85
2022/04/06 02:07:27;;;;;;;1.30;1.20;;;;;;;19.87;43.56;96720.69;4882609;29;20210;-86
2022/04/06 02:10:02;;;;;;;1.50;1.40;;;;;;;19.72;43.54;96694.84;4884938;29;20198;-86
2022/04/06 02:12:32;;;;;;;1.50;1.40;;;;;;;11.06;43.59;95268.25;4886630;29;20232;-86
2022/04/06 02:14:59;;;;;;;1.40;1.30;;;;;;;17.25;43.81;96268.81;4878956;29;20205;-86
2022/04/06 02:17:28;;;;;;;1.50;1.40;;;;;;;14.07;43.72;95769.25;4907090;29;20241;-86
2022/04/06 02:19:56;;;;;;;1.20;1.20;;;;;;;16.46;43.66;96127.16;4898318;29;20289;-88
2022/04/06 02:22:26;;;;;;;1.60;1.50;;;;;;;17.28;43.57;96283.25;4913237;29;20234;-88
2022/04/06 02:24:55;;;;;;;1.40;1.30;;;;;;;17.28;42.98;96270.56;4866749;29;20210;-87
2022/04/06 02:27:24;;;;;;;1.30;1.20;;;;;;;12.58;43.67;95498.06;4882533;29;20202;-86
2022/04/06 02:29:51;;;;;;;1.43;1.33;;;;;;;19.58;43.61;96650.31;4880958;29;20194;-85
2022/04/06 02:32:21;;;;;;;1.50;1.40;;;;;;;14.29;43.47;95817.97;4876081;29;20253;-86
2022/04/06 02:34:54;;;;;;;1.23;1.23;;;;;;;18.39;43.67;96440.34;4897008;29;20230;-87
2022/04/06 02:37:24;;;;;;;1.50;1.40;;;;;;;19.87;43.66;96701.13;4880223;29;20210;-86
2022/04/06 02:39:55;;;;;;;1.30;1.20;;;;;;;19.56;43.50;96639.22;4905336;29;20218;-86
2022/04/06 02:42:25;;;;;;;1.40;1.30;;;;;;;19.87;43.65;96692.66;4868139;29;20665;-86
2022/04/06 02:44:54;;;;;;;1.30;1.20;;;;;;;17.72;43.62;96324.25;4895390;29;20210;-86
2022/04/06 02:47:21;;;;;;;1.33;1.23;;;;;;;18.39;43.81;96432.72;4894345;29;20234;-86
2022/04/06 02:49:48;;;;;;;1.50;1.40;;;;;;;19.88;43.85;96690.13;4894866;29;20217;-85
2022/04/06 02:52:14;;;;;;;1.40;1.30;;;;;;;14.79;43.64;95852.31;4878621;29;20254;-85
2022/04/06 02:54:41;;;;;;;1.37;1.27;;;;;;;18.41;43.80;96431.91;4888145;29;20229;-87
2022/04/06 02:57:08;;;;;;;1.57;1.47;;;;;;;10.56;43.78;95083.22;4892423;29;20218;-85
2022/04/06 02:59:39;;;;;;;1.50;1.40;;;;;;;9.51;43.61;94958.38;4881069;29;20582;-86
2022/04/06 03:02:12;;;;;;;1.50;1.40;;;;;;;16.03;43.91;96092.13;4880520;29;20598;-85
2022/04/06 03:04:39;;;;;;;1.50;1.40;;;;;;;14.32;44.13;95769.19;4866054;29;20260;-86
2022/04/06 03:07:16;;;;;;;1.30;1.20;;;;;;;19.88;43.56;96679.94;4897617;29;20281;-86
2022/04/06 03:09:43;;;;;;;1.17;1.17;;;;;;;16.30;43.91;96059.94;4877753;29;20510;-86
2022/04/06 03:12:10;;;;;;;1.47;1.30;;;;;;;15.47;43.81;95932.69;4860386;29;20226;-88
2022/04/06 03:14:39;;;;;;;1.57;1.47;;;;;;;14.35;43.55;95744.88;4878264;29;20202;-86
2022/04/06 03:17:11;;;;;;;1.63;1.30;;;;;;;16.06;43.88;96013.66;4874131;29;20210;-86
2022/04/06 03:19:38;;;;;;;1.50;1.27;;;;;;;19.87;43.84;96665.44;4876855;29;20206;-86
2022/04/06 03:22:07;;;;;;;1.23;1.20;;;;;;;18.11;43.84;96358.28;4891953;29;20236;-87
2022/04/06 03:24:33;;;;;;;1.40;1.30;;;;;;;10.84;43.65;95120.97;4883274;29;20210;-86
2022/04/06 03:27:00;;;;;;;1.30;1.20;;;;;;;13.69;43.60;95638.50;4875939;29;20207;-85
2022/04/06 03:29:29;;;;;;;1.30;1.20;;;;;;;11.63;43.58;95255.06;4875592;29;20222;-86
2022/04/06 03:31:55;;;;;;;1.30;1.20;;;;;;;19.42;43.84;96582.03;4877111;29;20214;-87
2022/04/06 03:34:25;;;;;;;1.37;1.27;;;;;;;19.87;43.81;96665.44;4876349;29;20207;-86
2022/04/06 03:36:52;;;;;;;1.47;1.37;;;;;;;16.32;43.89;96046.47;4875794;29;20220;-87
2022/04/06 03:39:27;;;;;;;1.50;1.40;;;;;;;10.67;43.74;95086.09;4878657;29;20210;-86
2022/04/06 03:41:55;;;;;;;1.33;1.23;;;;;;;15.86;43.76;96010.59;4876080;29;20222;-86
2022/04/06 03:44:22;;;;;;;1.50;1.40;;;;;;;19.88;43.96;96658.66;4880577;29;20732;-87
2022/04/06 03:46:48;;;;;;;1.40;1.30;;;;;;;19.88;43.69;96661.22;4895898;29;20244;-86
2022/04/06 03:49:17;;;;;;;1.27;1.20;;;;;;;19.88;43.72;96654.44;4897245;29;20213;-85
2022/04/06 03:51:44;;;;;;;1.40;1.30;;;;;;;18.66;43.83;96448.63;4909868;29;20245;-87
2022/04/06 03:54:11;;;;;;;1.47;1.37;;;;;;;19.87;43.57;96647.59;4860225;29;20214;-85
2022/04/06 03:56:38;;;;;;;1.20;1.20;;;;;;;19.88;43.89;96651.00;4875882;29;20210;-86
2022/04/06 03:59:07;;;;;;;1.40;1.30;;;;;;;19.88;43.80;96654.44;4861385;29;20304;-87
2022/04/06 04:01:36;;;;;;;1.50;1.40;;;;;;;19.66;43.78;96610.59;4892550;29;20293;-85
2022/04/06 04:04:06;;;;;;;1.10;1.10;;;;;;;19.88;43.76;96645.91;4867879;29;20238;-86
2022/04/06 04:06:36;;;;;;;1.10;1.10;;;;;;;19.88;43.67;96651.88;4889937;29;20237;-85
2022/04/06 04:09:03;;;;;;;1.13;1.13;;;;;;;19.88;43.90;96649.34;4867253;29;20302;-85
2022/04/06 04:11:30;;;;;;;1.23;1.20;;;;;;;19.31;43.76;96547.78;4883965;29;20337;-88
2022/04/06 04:13:59;;;;;;;1.40;1.30;;;;;;;19.89;43.83;96647.63;4869812;29;20340;-86
2022/04/06 04:16:26;;;;;;;1.40;1.30;;;;;;;18.55;43.70;96416.97;4886115;29;20214;-87
2022/04/06 04:18:53;;;;;;;1.40;1.30;;;;;;;17.42;43.59;96229.50;4859641;29;20214;-85
2022/04/06 04:21:32;;;;;;;1.37;1.27;;;;;;;18.46;43.93;96401.50;4882789;29;20211;-88
2022/04/06 04:24:05;;;;;;;1.60;1.50;;;;;;;19.47;43.71;96581.28;4889938;29;20327;-85
2022/04/06 04:26:32;;;;;;;1.60;1.50;;;;;;;19.31;43.88;96616.56;4878844;29;20206;-85
2022/04/06 04:28:58;;;;;;;1.40;1.30;;;;;;;19.89;43.93;96652.72;4877380;29;20659;-86
2022/04/06 04:31:25;;;;;;;1.83;1.17;;;;;;;10.58;43.52;95053.16;4890178;29;20217;-88
2022/04/06 04:33:55;;;;;;;1.30;1.20;;;;;;;14.64;43.58;95740.66;4858946;29;20258;-86
2022/04/06 04:36:22;;;;;;;1.57;1.47;;;;;;;15.85;43.06;95968.38;4875663;29;20212;-83
2022/04/06 04:38:49;;;;;;;2.80;1.40;;;;;;;12.84;43.73;95435.84;4887994;29;20202;-85
2022/04/06 04:41:16;;;;;;;1.50;1.40;;;;;;;11.24;43.57;95150.72;4865808;29;20268;-87
2022/04/06 04:43:43;;;;;;;1.10;1.10;;;;;;;19.89;43.79;96632.31;4893894;29;20273;-85
2022/04/06 04:46:10;;;;;;;1.47;1.33;;;;;;;19.89;43.72;96633.19;4894151;29;20659;-86
2022/04/06 04:48:37;;;;;;;1.10;1.10;;;;;;;19.90;43.89;96636.63;4877521;29;20301;-85
2022/04/06 04:51:04;;;;;;;1.57;1.47;;;;;;;17.71;43.68;96258.16;4877196;29;20240;-87
2022/04/06 04:53:32;;;;;;;1.13;1.10;;;;;;;19.89;43.77;96633.19;4876882;29;20250;-85
2022/04/06 04:55:59;;;;;;;1.53;1.33;;;;;;;19.37;43.91;96541.16;4894567;29;20257;-86
2022/04/06 04:58:29;;;;;;;1.10;1.10;;;;;;;19.27;43.82;96523.09;4861768;29;20305;-86
2022/04/06 05:00:55;;;;;;;1.33;1.20;;;;;;;19.90;43.81;96634.06;4876693;29;20744;-86
2022/04/06 05:03:22;;;;;;;1.40;1.30;;;;;;;19.58;43.76;96581.53;4893681;29;20241;-86
2022/04/06 05:05:51;;;;;;;1.50;1.40;;;;;;;18.52;43.48;96394.88;4877591;29;20206;-87
2022/04/06 05:08:23;;;;;;;1.33;1.23;;;;;;;19.91;43.79;96640.88;4864258;29;20294;-86
2022/04/06 05:10:50;;;;;;;1.30;1.20;;;;;;;19.58;43.66;96584.94;4876122;29;20248;-86
2022/04/06 05:13:20;;;;;;;1.47;1.37;;;;;;;19.58;43.82;96581.53;4878581;29;20234;-87
2022/04/06 05:15:47;;;;;;;1.40;1.30;;;;;;;19.90;43.69;96641.72;4865968;29;20225;-87
2022/04/06 05:18:14;;;;;;;1.30;1.20;;;;;;;18.76;44.13;96448.88;4897546;29;20222;-87
2022/04/06 05:20:41;;;;;;;2.47;1.40;;;;;;;19.52;43.74;96573.75;4864970;29;20309;-85
2022/04/06 05:23:07;;;;;;;1.40;1.30;;;;;;;19.90;43.55;96637.47;4849457;29;20590;-86
2022/04/06 05:25:34;;;;;;;1.60;1.50;;;;;;;19.91;43.86;96640.88;4898024;29;20305;-86
2022/04/06 05:28:01;;;;;;;1.40;1.30;;;;;;;18.50;43.71;96401.59;4898249;29;20260;-87
2022/04/06 05:30:29;;;;;;;1.43;1.33;;;;;;;19.38;43.52;96547.09;4866015;29;20214;-85
2022/04/06 05:32:56;;;;;;;1.47;1.37;;;;;;;19.37;43.75;96553.03;4897333;29;20273;-85
2022/04/06 05:35:24;;;;;;;1.43;1.30;;;;;;;19.53;43.70;96583.97;4864889;29;20297;-85
2022/04/06 05:37:50;;;;;;;1.40;1.30;;;;;;;19.03;43.74;96487.69;4849451;29;20261;-85
2022/04/06 05:40:17;;;;;;;1.40;1.30;;;;;;;19.13;43.89;96511.69;4864582;29;20700;-87
2022/04/06 05:42:44;;;;;;;1.43;1.33;;;;;;;19.09;43.70;96509.88;4880301;29;20670;-86
2022/04/06 05:45:11;;;;;;;1.67;1.57;;;;;;;19.11;43.69;96508.22;4865435;29;20269;-84
2022/04/06 05:47:37;;;;;;;1.67;1.57;;;;;;;19.04;43.48;96494.50;4864727;29;20237;-85
2022/04/06 05:50:06;;;;;;;1.50;1.40;;;;;;;19.08;43.78;96509.03;4880719;29;20232;-86
2022/04/06 05:52:32;;;;;;;1.70;1.60;;;;;;;19.90;43.80;96647.66;4865745;29;20305;-86
2022/04/06 05:54:59;;;;;;;1.27;1.27;;;;;;;19.66;43.74;96608.88;4865850;29;20253;-83
2022/04/06 05:57:25;;;;;;;2.17;1.57;;;;;;;19.91;43.60;96651.06;4870815;29;20237;-87
2022/04/06 05:59:52;;;;;;;2.13;2.03;;;;;;;18.72;43.80;96442.00;4898026;29;20233;-86
2022/04/06 06:02:23;;;;;;;3.47;2.50;;;;;;;19.92;43.85;96638.38;4865234;29;20273;-86
2022/04/06 06:04:53;;;;;;;6.63;2.50;;;;;;;18.69;43.74;96435.97;4896998;29;20268;-86
2022/04/06 06:07:20;;;;;;;2.40;2.20;;;;;;;19.93;43.94;96641.78;4880032;29;20293;-86
2022/04/06 06:09:47;;;;;;;3.53;2.43;;;;;;;19.91;43.87;96644.31;4879655;29;20324;-86
2022/04/06 06:12:13;;;;;;;2.73;2.23;;;;;;;19.29;43.85;96527.38;4879347;29;20226;-86
2022/04/06 06:14:40;;;;;;;2.40;2.20;;;;;;;19.12;43.87;96503.16;4879388;29;20206;-86
2022/04/06 06:17:07;;;;;;;2.73;2.20;;;;;;;19.58;44.08;96579.84;4864386;29;20795;-86
2022/04/06 06:19:33;;;;;;;3.80;2.10;;;;;;;19.21;43.70;96508.47;4878932;29;20572;-87
2022/04/06 06:22:00;;;;;;;2.00;1.90;;;;;;;19.91;44.23;96633.22;4879170;29;20206;-86
2022/04/06 06:24:27;;;;;;;2.10;1.90;;;;;;;19.90;43.53;96632.34;4878152;29;20333;-86
2022/04/06 06:26:54;;;;;;;2.60;1.97;;;;;;;19.90;43.81;96628.97;4896854;29;20863;-86
2022/04/06 06:29:22;;;;;;;1.87;1.73;;;;;;;19.63;43.72;96578.22;4895948;29;20270;-86
2022/04/06 06:31:49;;;;;;;2.30;1.87;;;;;;;18.91;43.76;96458.53;4863580;29;20233;-89
2022/04/06 06:34:15;;;;;;;1.97;1.87;;;;;;;15.46;43.84;95954.63;5183519;23;20241;-91
2022/04/06 06:36:42;;;;;;;2.47;1.70;;;;;;;16.05;43.58;95966.38;4960899;23;20287;-92
2022/04/06 06:50:21;;;;;;;1.90;1.80;;;;;;;19.21;43.62;96510.16;3006102;23;20237;-92
2022/04/06 06:53:02;;;;;;;1.63;1.47;;;;;;;14.68;43.72;95781.22;5013556;23;20304;-91
2022/04/06 09:06:21;;;;;;;1.47;1.37;;;;;;;19.93;43.70;96593.34;1696887;23;20474;-96
2022/04/06 12:43:16;;;;;;;1.10;1.10;;;;;;;19.92;43.95;96300.91;5569388;23;20202;-93
2022/04/06 12:45:47;;;;;;;1.47;1.30;;;;;;;16.98;43.65;95853.63;4928292;29;20207;-94
2022/04/06 12:48:33;;;;;;;1.40;1.30;;;;;;;19.93;43.84;96356.19;4916154;29;20187;-94
2022/04/06 12:51:23;;;;;;;1.27;1.17;;;;;;;17.22;43.64;95837.22;4919674;29;20174;-94
2022/04/06 12:54:17;;;;;;;1.20;1.17;;;;;;;14.96;43.75;95479.38;4928908;29;20171;-94
2022/04/06 12:57:14;;;;;;;1.00;1.00;;;;;;;19.93;43.85;96284.81;4930723;29;20170;-93
2022/04/06 12:59:54;;;;;;;1.10;1.10;;;;;;;16.24;44.06;95661.88;4945410;29;20170;-94
2022/04/06 13:02:31;;;;;;;1.10;1.10;;;;;;;15.49;43.87;95600.34;4915102;29;20205;-94
2022/04/06 13:05:34;;;;;;;1.10;1.10;;;;;;;14.51;43.62;95405.03;4919568;29;20238;-94
2022/04/06 13:08:05;;;;;;;1.13;1.13;;;;;;;14.11;43.64;95346.78;4910915;29;20182;-94
2022/04/06 13:10:38;;;;;;;1.13;1.10;;;;;;;13.86;43.51;95331.91;4895173;29;20183;-94
2022/04/06 13:13:19;;;;;;;1.10;1.10;;;;;;;15.01;43.83;95437.31;4893445;29;20171;-95
2022/04/06 13:16:09;;;;;;;1.30;1.20;;;;;;;14.48;43.50;95365.38;4897403;29;20166;-94
2022/04/06 13:18:36;;;;;;;1.40;1.30;;;;;;;15.30;43.59;95493.59;4910426;29;20198;-94
2022/04/06 13:21:13;;;;;;;;;;;;;;;;;;;;;
2022/04/06 13:23:41;;;;;;;1.10;1.10;;;;;;;16.68;43.75;95724.50;4908170;29;20240;-93
2022/04/06 13:26:11;;;;;;;1.30;1.20;;;;;;;18.15;43.90;95991.41;4922208;29;20269;-93
2022/04/06 13:28:39;;;;;;;1.07;1.07;;;;;;;17.52;43.74;95825.09;4929913;29;20205;-94
2022/04/06 13:31:06;;;;;;;1.03;1.03;;;;;;;15.46;43.82;95561.47;4930030;29;20201;-94
2022/04/06 13:33:33;;;;;;;1.00;1.00;;;;;;;17.17;43.71;95807.50;4928924;29;20197;-95
2022/04/06 13:36:04;;;;;;;1.00;1.00;;;;;;;14.92;43.63;95414.38;4915379;29;20205;-93
2022/04/06 13:38:32;;;;;;;1.00;1.00;;;;;;;16.19;43.71;95639.00;4929261;29;20193;-94
2022/04/06 13:40:59;;;;;;;1.30;1.20;;;;;;;15.58;43.91;95466.41;4928889;29;20196;-93
2022/04/06 13:43:25;;;;;;;1.30;1.20;;;;;;;16.18;43.92;95584.09;4913267;29;20220;-94
2022/04/06 13:45:53;;;;;;;1.30;1.20;;;;;;;15.32;43.57;95419.44;4917784;29;20271;-93
2022/04/06 13:48:20;;;;;;;1.10;1.10;;;;;;;15.48;44.07;95461.97;5035342;23;20233;-94
2022/04/06 13:53:22;;;;;;;1.03;1.03;;;;;;;17.83;43.89;95857.00;4262071;27;20234;-93
2022/04/06 13:55:49;;;;;;;1.10;1.10;;;;;;;17.52;43.43;95788.69;4912778;29;20182;-92
2022/04/06 13:58:16;;;;;;;1.17;1.10;;;;;;;14.19;43.76;95240.09;4904861;29;20201;-92
2022/04/06 14:00:43;;;;;;;1.07;1.00;;;;;;;14.74;43.95;95347.41;4906362;29;20182;-94
2022/04/06 14:03:10;;;;;;;1.17;1.10;;;;;;;18.21;43.54;95914.41;4907729;29;20243;-93
2022/04/06 14:05:37;;;;;;;1.30;1.20;;;;;;;14.16;43.91;95232.47;4924732;29;20213;-93
2022/04/06 14:08:09;;;;;;;1.00;1.00;;;;;;;17.04;43.83;95673.59;4925359;29;20205;-92
2022/04/06 14:10:36;;;;;;;1.00;1.00;;;;;;;14.22;43.63;95207.34;4909437;29;20222;-93
2022/04/06 14:13:04;;;;;;;1.00;1.00;;;;;;;17.18;43.65;95726.31;4941473;29;20217;-94
2022/04/06 14:15:31;;;;;;;1.00;1.00;;;;;;;18.57;43.70;96019.34;4925274;29;20184;-91
2022/04/06 14:17:58;;;;;;;1.20;1.10;;;;;;;14.42;44.09;95275.97;4925731;29;20190;-94
2022/04/06 14:20:25;;;;;;;1.40;1.30;;;;;;;18.99;43.50;96063.31;4924273;29;20431;-93
2022/04/06 14:22:52;;;;;;;1.30;1.20;;;;;;;15.00;43.67;95362.28;4925060;29;20243;-95
2022/04/06 14:25:19;;;;;;;1.10;1.10;;;;;;;15.31;43.50;95362.03;4924917;29;20296;-94
2022/04/06 14:27:47;;;;;;;1.03;1.03;;;;;;;16.57;43.59;95637.22;4924298;29;20540;-93
2022/04/06 14:30:14;;;;;;;1.10;1.10;;;;;;;15.88;43.76;95535.34;4940007;29;20261;-89
2022/04/06 14:32:41;;;;;;;0.97;0.97;;;;;;;19.94;43.76;96253.38;4940386;29;20249;-91
2022/04/06 14:35:08;;;;;;;0.97;0.90;;;;;;;15.29;43.71;95389.00;4924503;29;20193;-94
2022/04/06 14:37:35;;;;;;;1.00;1.00;;;;;;;14.49;44.20;95276.16;4923867;29;20198;-93
2022/04/06 14:40:03;;;;;;;1.13;1.10;;;;;;;19.94;43.75;96156.47;4923975;29;20206;-90
2022/04/06 14:42:30;;;;;;;1.00;1.00;;;;;;;14.78;43.82;95296.94;4908351;29;20313;-92
2022/04/06 14:44:57;;;;;;;0.93;0.93;;;;;;;17.83;44.27;95775.69;4922391;29;20218;-91
2022/04/06 14:47:25;;;;;;;0.90;0.90;;;;;;;18.79;43.88;95998.47;4923130;29;20201;-94
2022/04/06 14:49:52;;;;;;;1.00;1.00;;;;;;;16.81;43.58;95654.59;4922296;29;20185;-92
2022/04/06 14:52:19;;;;;;;1.00;1.00;;;;;;;18.85;43.94;95941.72;4922979;29;20194;-92
2022/04/06 14:54:46;;;;;;;0.83;0.83;;;;;;;17.23;43.87;95671.38;4922365;29;20182;-94
2022/04/06 14:57:12;;;;;;;2.17;1.10;;;;;;;16.88;43.76;95633.56;4906843;29;20271;-93
2022/04/06 14:59:39;;;;;;;1.10;1.10;;;;;;;16.54;44.68;95537.44;4922186;29;20213;-92
2022/04/06 15:02:06;;;;;;;1.30;1.20;;;;;;;15.25;43.39;95306.28;4937646;29;20190;-93
2022/04/06 15:04:32;;;;;;;1.20;1.10;;;;;;;17.36;43.94;95692.75;4919073;29;20237;-92
2022/04/06 15:06:59;;;;;;;3.13;1.20;;;;;;;17.07;43.80;95635.56;4889801;29;20227;-94
2022/04/06 15:09:26;;;;;;;2.97;1.00;;;;;;;16.31;43.80;95527.72;4889952;29;20186;-93
2022/04/06 15:11:53;;;;;;;1.30;1.00;;;;;;;16.26;43.92;95508.19;4904888;29;20227;-93
2022/04/06 15:14:20;;;;;;;1.07;1.03;;;;;;;14.31;43.74;95143.56;4905356;29;20234;-90
2022/04/06 15:16:47;;;;;;;2.97;1.17;;;;;;;15.99;43.94;95500.09;4921007;29;20203;-94
2022/04/06 15:19:14;;;;;;;1.23;1.13;;;;;;;16.85;43.69;95601.41;4889709;29;20218;-93
2022/04/06 15:21:40;;;;;;;1.00;1.00;;;;;;;18.62;43.71;95932.91;4905116;29;20252;-93
2022/04/06 15:24:08;;;;;;;1.00;1.00;;;;;;;16.23;43.83;95521.66;4904388;29;20218;-94
2022/04/06 15:26:35;;;;;;;2.50;1.27;;;;;;;15.31;43.78;95303.03;4904420;29;20212;-94
2022/04/06 15:29:02;;;;;;;1.20;1.20;;;;;;;16.68;43.99;95536.84;4918902;29;20202;-91
2022/04/06 15:31:28;;;;;;;1.30;1.20;;;;;;;13.18;43.91;94941.91;4919977;29;20203;-94
2022/04/06 15:33:55;;;;;;;1.33;1.00;;;;;;;14.90;43.38;95264.31;4919054;29;20274;-92
2022/04/06 15:39:08;;;;;;;1.17;1.07;;;;;;;18.65;43.91;95949.06;4906871;29;20190;-91
2022/04/06 15:41:35;;;;;;;1.30;1.10;;;;;;;15.85;43.75;95458.47;4904104;29;20178;-93
2022/04/06 15:44:03;;;;;;;1.00;1.00;;;;;;;15.05;44.19;95274.72;4932516;29;20242;-92
2022/04/06 15:46:30;;;;;;;3.30;1.03;;;;;;;15.79;43.81;95461.75;4923715;29;20233;-94
2022/04/06 15:48:57;;;;;;;1.00;1.00;;;;;;;16.96;43.90;95637.09;4923451;29;20209;-93
2022/04/06 15:51:24;;;;;;;0.90;0.90;;;;;;;17.68;43.56;95752.59;4923169;29;20222;-94
2022/04/06 15:53:51;;;;;;;1.20;1.10;;;;;;;14.53;43.98;95217.25;4923361;29;20198;-92
2022/04/06 15:56:18;;;;;;;1.40;1.30;;;;;;;15.98;43.76;95455.31;4923712;29;20221;-92
2022/04/06 15:58:46;;;;;;;1.10;1.10;;;;;;;16.19;43.70;95534.22;4924196;29;20190;-92
2022/04/06 16:01:13;;;;;;;3.30;1.20;;;;;;;16.34;43.97;95504.97;4924177;29;20186;-94
2022/04/06 16:03:41;;;;;;;1.10;1.00;;;;;;;14.92;43.86;95250.00;4908740;29;20206;-91
2022/04/06 16:06:09;;;;;;;0.90;0.90;;;;;;;15.42;43.70;95385.09;4923894;29;20213;-93
2022/04/06 16:08:36;;;;;;;1.00;1.00;;;;;;;15.03;43.74;95321.88;4924297;29;20185;-94
2022/04/06 16:11:03;;;;;;;1.23;1.13;;;;;;;15.13;43.60;95326.28;4923626;29;20186;-90
2022/04/06 16:13:30;;;;;;;1.10;1.10;;;;;;;16.21;43.83;95502.19;4923139;29;20222;-92
2022/04/06 16:15:57;;;;;;;1.43;1.30;;;;;;;16.62;43.77;95508.00;4939277;29;20196;-92
2022/04/06 16:18:25;;;;;;;1.10;1.10;;;;;;;16.19;43.75;95438.81;4920157;29;20481;-93
2022/04/06 16:20:52;;;;;;;1.20;1.10;;;;;;;15.82;43.50;95377.38;4919895;29;20197;-91
2022/04/06 16:23:33;;;;;;;1.00;1.00;;;;;;;13.53;43.67;95010.69;4919849;29;20256;-90
2022/04/06 16:26:00;;;;;;;0.90;0.90;;;;;;;17.56;43.95;95683.81;4912937;29;20217;-91
2022/04/06 16:28:27;;;;;;;1.37;1.20;;;;;;;16.99;43.96;95627.84;4913116;29;20222;-90
2022/04/06 16:30:54;;;;;;;1.53;1.10;;;;;;;13.21;43.90;94977.25;4912193;29;20210;-92
2022/04/06 16:33:21;;;;;;;2.47;1.37;;;;;;;14.31;44.16;95157.03;4957923;23;20232;-92
2022/04/06 16:35:48;;;;;;;1.17;1.00;;;;;;;15.18;43.81;95344.94;4942077;28;20181;-93
2022/04/06 16:38:27;;;;;;;3.63;1.27;;;;;;;15.20;43.84;95329.78;4927882;28;20229;-92
2022/04/06 16:40:53;;;;;;;4.57;1.27;;;;;;;14.84;44.08;95226.28;4924975;29;20178;-92
2022/04/06 16:43:20;;;;;;;1.77;1.30;;;;;;;18.08;43.93;95750.66;4903963;29;20253;-93
2022/04/06 16:45:47;;;;;;;1.37;1.27;;;;;;;16.96;43.98;95584.66;4936726;29;20217;-93
2022/04/06 16:48:14;;;;;;;8.37;1.50;;;;;;;19.39;44.04;95968.00;4923253;29;20230;-90
2022/04/06 16:53:26;;;;;;;3.90;1.17;;;;;;;16.05;44.20;95424.22;4924220;29;20225;-92
2022/04/06 16:55:53;;;;;;;1.30;1.20;;;;;;;16.19;44.09;95436.28;4921873;29;20241;-93
2022/04/06 16:58:19;;;;;;;1.80;1.20;;;;;;;17.87;44.03;95698.66;4937275;29;20201;-92
2022/04/06 17:00:51;;;;;;;1.50;1.10;;;;;;;18.56;44.05;95818.34;4936711;29;20372;-93
2022/04/06 17:03:18;;;;;;;1.23;1.03;;;;;;;15.87;44.02;95341.16;4921326;29;20282;-93
2022/04/06 17:05:45;;;;;;;1.30;1.20;;;;;;;17.36;44.02;95596.28;4936972;29;20248;-94
2022/04/06 17:08:13;;;;;;;3.03;1.40;;;;;;;13.08;43.63;94876.97;5053708;23;20226;-92
2022/04/06 17:10:40;;;;;;;1.73;1.10;;;;;;;17.57;44.01;95630.50;4892522;29;20235;-93
2022/04/06 17:13:07;;;;;;;3.80;1.10;;;;;;;18.35;43.85;95762.91;4920895;29;20207;-93
2022/04/06 17:15:33;;;;;;;2.53;1.27;;;;;;;18.44;43.97;95780.03;4900697;29;20187;-92
2022/04/06 17:18:01;;;;;;;3.30;1.40;;;;;;;17.34;43.94;95614.03;4908434;29;20190;-94
2022/04/06 17:20:28;;;;;;;1.00;1.00;;;;;;;20.00;44.04;96044.38;4901593;29;20235;-93
2022/04/06 17:22:55;;;;;;;2.20;1.20;;;;;;;18.09;44.13;95742.19;4912330;29;20219;-91
2022/04/06 17:25:22;;;;;;;3.20;1.30;;;;;;;15.91;43.94;95345.47;4915468;29;20245;-94
2022/04/06 17:27:59;;;;;;;1.10;1.00;;;;;;;16.07;44.14;95427.59;4911403;29;20199;-91
2022/04/06 17:30:28;;;;;;;2.17;1.30;;;;;;;16.27;43.90;95427.13;4922262;29;20190;-92
2022/04/06 17:32:56;;;;;;;4.10;1.10;;;;;;;20.05;44.45;96049.53;4922997;29;20218;-92
2022/04/06 17:35:25;;;;;;;3.80;1.20;;;;;;;13.88;44.23;95058.50;4966119;24;20213;-92
2022/04/06 17:38:13;;;;;;;1.70;1.20;;;;;;;20.05;44.68;96042.75;4903737;29;20207;-94
2022/04/06 17:43:31;;;;;;;1.97;1.47;;;;;;;14.01;44.14;95077.28;4982184;23;20229;-92
2022/04/06 17:45:58;;;;;;;2.60;1.37;;;;;;;16.46;44.11;95452.81;4911124;29;20213;-94
2022/04/06 17:48:25;;;;;;;1.00;1.00;;;;;;;14.91;44.09;95210.41;4918461;29;20189;-92
2022/04/06 17:50:51;;;;;;;2.57;1.30;;;;;;;16.39;43.86;95460.28;4901509;29;20178;-93
2022/04/06 17:56:15;;;;;;;1.40;1.20;;;;;;;16.35;44.01;95445.00;4981509;23;20244;-94
2022/04/06 17:58:47;;;;;;;1.23;1.10;;;;;;;17.26;43.99;95571.59;4927614;29;20213;-94
2022/04/06 18:06:36;;;;;;;1.30;1.20;;;;;;;20.05;44.27;96040.19;3118218;23;20217;-93
2022/04/06 18:09:07;;;;;;;1.93;1.00;;;;;;;18.51;44.44;95832.69;4911767;29;20185;-93
2022/04/06 18:19:44;;;;;;;1.73;1.17;;;;;;;16.03;44.02;95367.59;4232170;26;20198;-93
